Time;durP1;ratioP1;P1;durP2;ratioP2;P2;SDS_P1;SDS_P2;PMS_P1;PMS_P2;Temp;Humidity;BMP_temperature;BMP_pressure;BME280_temperature;BME280_humidity;BME280_pressure;Samples;Min_cycle;Max_cycle;Signal;HPM_P1;HPM_P2
2023/10/23 00:00:24;;;;;;;5.55;1.42;;;14.90;65.30;;;;;;5018843;28;20049;-45
2023/10/23 00:02:51;;;;;;;3.45;1.38;;;14.90;65.40;;;;;;5020768;28;20053;-43
2023/10/23 00:05:18;;;;;;;3.33;1.33;;;14.90;65.40;;;;;;5022635;28;20052;-41
2023/10/23 00:07:45;;;;;;;3.58;0.88;;;14.90;65.40;;;;;;5022029;28;20421;-43
2023/10/23 00:10:14;;;;;;;1.75;0.60;;;14.90;65.30;;;;;;5018925;28;20049;-42
2023/10/23 00:12:41;;;;;;;3.45;0.70;;;14.90;65.30;;;;;;5021035;28;20049;-44
2023/10/23 00:15:09;;;;;;;6.95;0.80;;;14.90;65.30;;;;;;5020492;28;20053;-42
2023/10/23 00:17:36;;;;;;;3.17;0.82;;;14.90;65.20;;;;;;5021034;28;20057;-44
2023/10/23 00:20:04;;;;;;;2.15;0.65;;;14.90;65.30;;;;;;5020782;28;20057;-45
2023/10/23 00:22:32;;;;;;;2.17;0.85;;;14.90;65.40;;;;;;5020392;28;20064;-44
2023/10/23 00:24:59;;;;;;;4.13;0.80;;;14.90;65.40;;;;;;5021179;28;20077;-41
2023/10/23 00:27:27;;;;;;;2.35;0.90;;;14.90;65.40;;;;;;5020943;28;20062;-44
2023/10/23 00:29:55;;;;;;;2.15;0.80;;;14.90;65.50;;;;;;5018731;28;20502;-42
2023/10/23 00:32:22;;;;;;;2.33;1.23;;;14.90;65.50;;;;;;5020077;28;20056;-43
2023/10/23 00:34:49;;;;;;;6.60;0.95;;;14.90;65.50;;;;;;5019026;28;20050;-45
2023/10/23 00:37:17;;;;;;;3.80;0.75;;;14.90;65.50;;;;;;5020554;28;20497;-45
2023/10/23 00:39:44;;;;;;;1.23;0.68;;;14.90;65.50;;;;;;5020301;28;20053;-42
2023/10/23 00:42:11;;;;;;;2.30;0.80;;;14.80;66.20;;;;;;5020715;28;20065;-43
2023/10/23 00:44:40;;;;;;;3.70;0.90;;;14.90;65.50;;;;;;5020835;28;20397;-43
2023/10/23 00:47:08;;;;;;;2.85;0.80;;;14.90;65.30;;;;;;5020712;28;20532;-46
2023/10/23 00:49:35;;;;;;;3.60;0.90;;;14.90;65.30;;;;;;5020982;28;20052;-44
2023/10/23 00:52:03;;;;;;;1.17;0.47;;;14.90;65.50;;;;;;5020235;28;20049;-42
2023/10/23 00:54:32;;;;;;;2.10;0.90;;;14.90;65.70;;;;;;5019172;28;20555;-45
2023/10/23 00:57:00;;;;;;;3.97;0.82;;;14.90;65.90;;;;;;5018887;28;20076;-42
2023/10/23 00:59:27;;;;;;;4.40;1.00;;;14.90;66.00;;;;;;5019851;28;20053;-43
2023/10/23 01:01:57;;;;;;;3.88;1.00;;;14.90;66.00;;;;;;5017262;28;20049;-41
2023/10/23 01:04:24;;;;;;;6.05;1.00;;;14.90;66.10;;;;;;5019487;28;20052;-44
2023/10/23 01:06:52;;;;;;;4.97;1.33;;;14.90;66.00;;;;;;5020032;28;20049;-43
2023/10/23 01:09:19;;;;;;;3.15;1.05;;;14.90;66.00;;;;;;5020294;28;20068;-42
2023/10/23 01:11:46;;;;;;;3.67;1.02;;;14.90;65.90;;;;;;5018611;28;20049;-42
2023/10/23 01:14:13;;;;;;;1.80;1.10;;;14.80;65.80;;;;;;5017695;28;20053;-43
2023/10/23 01:16:41;;;;;;;3.00;1.10;;;14.80;65.70;;;;;;5019391;28;20045;-48
2023/10/23 01:19:10;;;;;;;2.83;1.38;;;14.80;65.70;;;;;;5019766;28;20061;-44
2023/10/23 01:21:37;;;;;;;4.20;1.20;;;14.80;65.70;;;;;;5019640;28;20061;-41
2023/10/23 01:24:08;;;;;;;3.28;1.23;;;14.80;65.70;;;;;;5013938;28;20413;-42
2023/10/23 01:26:37;;;;;;;2.10;1.20;;;14.80;65.70;;;;;;5019069;28;20410;-41
2023/10/23 01:29:04;;;;;;;3.70;1.52;;;14.70;65.60;;;;;;5020837;28;20057;-42
2023/10/23 01:31:31;;;;;;;6.03;2.00;;;14.70;65.40;;;;;;5017700;28;20056;-43
2023/10/23 01:33:58;;;;;;;6.15;1.77;;;14.60;65.20;;;;;;5020505;28;20050;-41
2023/10/23 01:36:26;;;;;;;4.35;1.33;;;14.60;65.20;;;;;;5018806;28;20049;-42
2023/10/23 01:38:54;;;;;;;4.38;1.90;;;14.60;65.10;;;;;;5018896;28;20555;-43
2023/10/23 01:41:22;;;;;;;4.13;1.80;;;14.50;65.00;;;;;;5019038;28;20057;-47
2023/10/23 01:43:50;;;;;;;3.40;1.70;;;14.50;65.00;;;;;;5018289;28;20050;-42
2023/10/23 01:46:19;;;;;;;2.75;1.60;;;14.40;64.90;;;;;;5018595;28;20049;-42
2023/10/23 01:48:46;;;;;;;8.98;2.17;;;14.30;64.90;;;;;;5020624;28;20053;-42
2023/10/23 01:51:13;;;;;;;3.13;2.15;;;14.30;65.00;;;;;;5018307;28;20053;-42
2023/10/23 01:53:40;;;;;;;3.33;1.80;;;14.30;65.10;;;;;;5020993;28;20060;-45
2023/10/23 01:56:08;;;;;;;4.10;1.95;;;14.20;65.20;;;;;;5020317;28;20422;-45
2023/10/23 01:58:35;;;;;;;4.13;1.83;;;14.20;65.40;;;;;;5019896;28;20054;-43
2023/10/23 02:01:04;;;;;;;5.10;1.67;;;14.20;65.70;;;;;;5017183;28;20057;-46
2023/10/23 02:03:32;;;;;;;3.63;1.50;;;14.10;66.00;;;;;;5016926;28;20080;-45
2023/10/23 02:05:59;;;;;;;7.45;1.70;;;14.10;66.20;;;;;;5022281;28;20390;-43
2023/10/23 02:08:26;;;;;;;2.70;1.80;;;14.10;66.50;;;;;;5023019;28;20068;-42
2023/10/23 02:10:53;;;;;;;4.10;1.70;;;14.10;66.70;;;;;;5024182;28;20068;-43
2023/10/23 02:13:21;;;;;;;3.17;1.20;;;14.10;66.90;;;;;;5022015;28;20053;-42
2023/10/23 02:15:48;;;;;;;2.55;1.40;;;14.10;67.00;;;;;;5023717;28;20058;-44
2023/10/23 02:18:16;;;;;;;3.08;1.20;;;14.10;67.10;;;;;;5021915;28;20425;-43
2023/10/23 02:20:44;;;;;;;1.77;1.10;;;14.00;67.10;;;;;;5024232;28;20049;-42
2023/10/23 02:23:11;;;;;;;2.33;1.10;;;14.10;67.20;;;;;;5023331;28;20060;-43
2023/10/23 02:25:38;;;;;;;3.00;1.00;;;14.10;67.20;;;;;;5022904;28;20057;-46
2023/10/23 02:28:05;;;;;;;8.88;1.92;;;14.00;67.00;;;;;;5022964;28;20045;-43
2023/10/23 02:30:33;;;;;;;1.73;1.13;;;14.00;66.80;;;;;;5021024;28;20060;-42
2023/10/23 02:33:00;;;;;;;3.45;1.15;;;14.00;66.60;;;;;;5022830;28;20056;-43
2023/10/23 02:35:28;;;;;;;2.22;1.00;;;14.00;66.40;;;;;;5022473;28;20057;-41
2023/10/23 02:37:56;;;;;;;3.78;1.77;;;14.00;66.40;;;;;;5023368;28;20050;-46
2023/10/23 02:40:23;;;;;;;5.40;1.45;;;14.00;66.30;;;;;;5022628;28;20046;-46
2023/10/23 02:42:50;;;;;;;2.67;1.42;;;13.90;66.20;;;;;;5020750;28;20053;-45
2023/10/23 02:45:17;;;;;;;3.65;1.85;;;13.90;66.20;;;;;;5021582;28;20489;-46
2023/10/23 02:47:44;;;;;;;3.20;1.60;;;13.80;66.20;;;;;;5024134;28;20056;-50
2023/10/23 02:50:12;;;;;;;7.22;2.10;;;13.80;66.30;;;;;;5023217;28;20053;-47
2023/10/23 02:52:41;;;;;;;3.47;1.80;;;13.80;66.30;;;;;;5020193;28;20569;-48
2023/10/23 02:55:09;;;;;;;3.55;1.90;;;13.70;66.50;;;;;;5021849;28;20064;-49
2023/10/23 02:57:36;;;;;;;3.60;2.45;;;13.70;66.50;;;;;;5021618;28;20099;-46
2023/10/23 03:00:05;;;;;;;3.60;1.98;;;13.70;66.50;;;;;;5021865;28;20045;-48
2023/10/23 03:02:33;;;;;;;9.68;2.00;;;13.60;66.50;;;;;;5020828;28;20061;-45
2023/10/23 03:05:00;;;;;;;4.10;2.10;;;13.60;66.60;;;;;;5022407;28;20057;-47
2023/10/23 03:07:27;;;;;;;7.38;1.92;;;13.60;66.60;;;;;;5020434;28;20049;-47
2023/10/23 03:09:56;;;;;;;5.35;2.47;;;13.50;66.60;;;;;;5022284;28;20486;-46
2023/10/23 03:12:23;;;;;;;3.90;2.33;;;13.50;66.60;;;;;;5020234;28;20050;-47
2023/10/23 03:14:50;;;;;;;5.20;2.67;;;13.50;66.60;;;;;;5022793;28;20960;-44
2023/10/23 03:17:18;;;;;;;7.65;2.00;;;13.50;66.70;;;;;;5021226;28;20057;-49
2023/10/23 03:19:45;;;;;;;6.10;2.45;;;13.40;66.70;;;;;;5021730;28;20065;-45
2023/10/23 03:22:13;;;;;;;5.03;2.28;;;13.40;66.80;;;;;;5019675;28;20422;-50
2023/10/23 03:24:41;;;;;;;5.18;2.22;;;13.40;66.90;;;;;;5022779;28;20061;-45
2023/10/23 03:27:10;;;;;;;7.00;2.60;;;13.40;66.90;;;;;;5022740;28;20060;-51
2023/10/23 03:29:37;;;;;;;6.30;2.22;;;13.40;66.90;;;;;;5020107;28;20053;-46
2023/10/23 03:32:04;;;;;;;5.38;2.22;;;13.30;67.00;;;;;;5020032;28;20057;-49
2023/10/23 03:34:31;;;;;;;4.82;2.13;;;13.30;67.10;;;;;;5019224;28;20068;-46
2023/10/23 03:36:59;;;;;;;6.47;2.20;;;13.30;67.10;;;;;;5020932;28;20049;-49
2023/10/23 03:39:26;;;;;;;4.05;1.70;;;13.30;67.20;;;;;;5018358;28;20057;-46
2023/10/23 03:41:53;;;;;;;7.93;2.13;;;13.30;67.20;;;;;;5021082;28;20045;-47
2023/10/23 03:44:22;;;;;;;3.97;2.25;;;13.30;67.30;;;;;;5018042;28;20049;-47
2023/10/23 03:46:49;;;;;;;3.90;2.20;;;13.20;67.30;;;;;;5019348;28;20314;-49
2023/10/23 03:49:16;;;;;;;7.43;2.20;;;13.20;67.30;;;;;;5022329;28;20054;-48
2023/10/23 03:51:43;;;;;;;3.95;2.42;;;13.20;67.40;;;;;;5019289;28;20521;-46
2023/10/23 03:54:11;;;;;;;6.78;2.03;;;13.20;67.40;;;;;;5021357;28;20072;-48
2023/10/23 03:56:38;;;;;;;5.78;2.00;;;13.10;67.50;;;;;;5020052;28;20058;-47
2023/10/23 03:59:05;;;;;;;4.75;2.38;;;13.10;67.50;;;;;;5021918;28;20508;-49
2023/10/23 04:01:34;;;;;;;7.15;1.83;;;13.10;67.50;;;;;;5018936;28;20058;-48
2023/10/23 04:04:01;;;;;;;4.75;2.90;;;13.10;67.50;;;;;;5020922;28;20525;-49
2023/10/23 04:06:29;;;;;;;4.97;2.30;;;13.10;68.20;;;;;;5020157;28;20060;-51
2023/10/23 04:08:56;;;;;;;6.15;2.70;;;13.00;67.50;;;;;;5021775;28;20057;-48
2023/10/23 04:11:25;;;;;;;5.55;2.58;;;13.00;67.50;;;;;;5021177;28;21160;-49
2023/10/23 04:13:52;;;;;;;4.80;2.53;;;13.00;67.60;;;;;;5020484;28;20053;-46
2023/10/23 04:16:19;;;;;;;8.13;3.17;;;13.00;67.50;;;;;;5018638;28;20532;-45
2023/10/23 04:18:48;;;;;;;5.55;2.38;;;13.00;67.60;;;;;;5019132;28;20050;-48
2023/10/23 04:21:15;;;;;;;5.85;2.95;;;13.00;67.80;;;;;;5021453;28;20417;-45
2023/10/23 04:23:42;;;;;;;6.32;3.13;;;13.00;68.00;;;;;;5019867;28;20421;-47
2023/10/23 04:26:10;;;;;;;5.40;2.67;;;13.00;68.00;;;;;;5020011;28;20437;-51
2023/10/23 04:28:37;;;;;;;4.40;2.92;;;13.00;68.00;;;;;;5020682;28;20057;-49
2023/10/23 04:31:04;;;;;;;8.30;3.05;;;12.90;67.90;;;;;;5020326;28;20053;-46
2023/10/23 04:33:32;;;;;;;7.97;3.67;;;12.90;67.80;;;;;;5017498;28;20054;-49
2023/10/23 04:36:01;;;;;;;5.78;2.85;;;12.90;67.80;;;;;;5021482;28;20054;-47
2023/10/23 04:38:28;;;;;;;4.95;3.30;;;12.90;67.70;;;;;;5009844;28;20593;-45
2023/10/23 04:40:55;;;;;;;7.60;3.63;;;12.90;67.60;;;;;;4999028;28;20059;-45
2023/10/23 04:43:23;;;;;;;5.25;2.97;;;12.90;67.50;;;;;;5000503;28;20061;-48
2023/10/23 04:45:52;;;;;;;4.90;3.45;;;12.80;67.50;;;;;;4998696;28;20061;-48
2023/10/23 04:48:20;;;;;;;6.47;3.47;;;12.80;67.40;;;;;;5001052;28;20050;-47
2023/10/23 04:50:47;;;;;;;7.55;3.83;;;12.80;67.60;;;;;;5000080;28;20506;-49
2023/10/23 04:53:15;;;;;;;6.28;3.78;;;12.80;67.60;;;;;;4999302;28;20062;-48
2023/10/23 04:55:43;;;;;;;9.07;4.47;;;12.80;67.70;;;;;;5000388;28;20406;-46
2023/10/23 04:58:11;;;;;;;8.18;4.50;;;12.70;67.80;;;;;;5000438;28;20053;-45
2023/10/23 05:00:39;;;;;;;8.65;4.15;;;12.70;68.00;;;;;;5000116;28;20057;-47
2023/10/23 05:03:08;;;;;;;5.18;4.03;;;12.70;68.10;;;;;;5001174;28;20061;-47
2023/10/23 05:05:35;;;;;;;9.45;4.82;;;12.70;68.10;;;;;;5000085;28;20049;-49
2023/10/23 05:08:04;;;;;;;7.97;4.53;;;12.70;68.30;;;;;;5000269;28;20418;-41
2023/10/23 05:10:33;;;;;;;8.82;5.25;;;12.70;68.50;;;;;;5000369;28;20612;-43
2023/10/23 05:13:02;;;;;;;17.83;8.82;;;12.70;68.70;;;;;;4998471;28;20069;-43
2023/10/23 05:15:31;;;;;;;27.05;13.95;;;12.70;68.80;;;;;;4998296;28;20062;-43
2023/10/23 05:17:58;;;;;;;14.05;8.27;;;12.70;68.90;;;;;;5000213;28;20506;-45
2023/10/23 05:20:25;;;;;;;10.18;5.82;;;12.70;69.00;;;;;;4999746;28;20050;-45
2023/10/23 05:22:53;;;;;;;8.48;5.90;;;12.70;69.10;;;;;;5001074;28;20062;-44
2023/10/23 05:25:20;;;;;;;9.68;6.13;;;12.80;69.30;;;;;;4998720;28;20061;-44
2023/10/23 05:27:48;;;;;;;9.77;6.35;;;12.80;69.40;;;;;;4999458;28;20491;-45
2023/10/23 05:30:16;;;;;;;11.07;5.65;;;12.80;69.40;;;;;;4999414;28;20068;-44
2023/10/23 05:32:43;;;;;;;10.63;6.72;;;12.80;69.40;;;;;;4999354;28;20053;-43
2023/10/23 05:35:11;;;;;;;11.35;6.65;;;12.80;69.40;;;;;;5001681;28;20069;-42
2023/10/23 05:37:39;;;;;;;9.80;6.65;;;12.80;69.50;;;;;;4998991;28;20050;-44
2023/10/23 05:40:07;;;;;;;9.35;6.55;;;12.90;69.60;;;;;;5000627;28;20049;-44
2023/10/23 05:42:35;;;;;;;13.77;8.68;;;12.90;69.60;;;;;;5003777;28;20057;-46
2023/10/23 05:45:04;;;;;;;74.53;34.28;;;12.90;69.50;;;;;;5003895;28;20061;-47
2023/10/23 05:47:31;;;;;;;19.13;11.05;;;12.90;69.50;;;;;;5001747;28;20494;-43
2023/10/23 05:49:59;;;;;;;13.07;8.35;;;13.00;69.50;;;;;;5003116;28;20049;-42
2023/10/23 05:52:26;;;;;;;13.25;8.50;;;13.00;69.60;;;;;;5003289;28;20061;-44
2023/10/23 05:54:54;;;;;;;11.55;7.57;;;13.00;69.50;;;;;;5002415;28;20057;-42
2023/10/23 05:57:21;;;;;;;16.38;8.93;;;13.00;69.50;;;;;;5001906;28;20054;-42
2023/10/23 05:59:48;;;;;;;13.00;8.45;;;13.00;69.40;;;;;;5001436;28;20076;-46
2023/10/23 06:02:18;;;;;;;12.43;8.40;;;13.00;69.30;;;;;;5003532;28;20413;-42
2023/10/23 06:04:45;;;;;;;12.68;8.25;;;13.10;69.30;;;;;;5003563;28;20050;-45
2023/10/23 06:07:13;;;;;;;12.60;8.90;;;13.10;69.20;;;;;;5002748;28;20053;-45
2023/10/23 06:09:40;;;;;;;15.27;8.45;;;13.10;69.20;;;;;;5004942;28;20053;-45
2023/10/23 06:12:09;;;;;;;17.40;8.70;;;13.10;69.10;;;;;;5004399;28;20486;-48
2023/10/23 06:14:36;;;;;;;18.13;8.32;;;13.10;69.10;;;;;;5002501;28;20057;-44
2023/10/23 06:17:04;;;;;;;12.63;8.23;;;13.20;69.00;;;;;;5001921;28;20057;-44
2023/10/23 06:19:32;;;;;;;11.43;7.70;;;13.20;68.90;;;;;;5002851;28;20061;-47
2023/10/23 06:21:59;;;;;;;10.15;7.95;;;13.10;68.70;;;;;;5003162;28;20046;-46
2023/10/23 06:24:27;;;;;;;10.60;7.40;;;13.10;68.60;;;;;;5003296;28;20502;-47
2023/10/23 06:26:54;;;;;;;10.23;7.32;;;13.10;68.50;;;;;;5001824;28;20423;-42
2023/10/23 06:29:21;;;;;;;11.50;8.00;;;13.10;68.50;;;;;;5002149;28;20049;-46
2023/10/23 06:31:49;;;;;;;12.02;7.15;;;13.20;68.50;;;;;;5001855;28;20059;-47
2023/10/23 06:34:16;;;;;;;9.13;6.13;;;13.10;68.40;;;;;;5001937;28;20069;-45
2023/10/23 06:36:44;;;;;;;11.10;5.95;;;13.10;68.30;;;;;;5003162;28;20050;-44
2023/10/23 06:39:12;;;;;;;11.82;6.65;;;13.10;68.30;;;;;;5004086;28;20391;-46
2023/10/23 06:41:40;;;;;;;11.55;6.85;;;13.10;68.40;;;;;;5001596;28;20061;-48
2023/10/23 06:44:07;;;;;;;10.02;6.55;;;13.10;68.40;;;;;;5002112;28;20057;-47
2023/10/23 06:46:34;;;;;;;8.63;5.90;;;13.10;68.40;;;;;;5000026;28;20056;-46
2023/10/23 06:49:01;;;;;;;12.40;6.68;;;13.10;68.40;;;;;;5001374;28;20054;-45
2023/10/23 06:51:29;;;;;;;11.82;7.50;;;13.10;68.40;;;;;;5001163;28;20046;-43
2023/10/23 06:53:57;;;;;;;9.13;6.38;;;13.10;68.50;;;;;;5003044;28;20049;-44
2023/10/23 06:56:25;;;;;;;9.98;6.72;;;13.10;68.60;;;;;;5002873;28;20053;-44
2023/10/23 06:58:53;;;;;;;11.23;6.25;;;13.20;68.70;;;;;;5001774;28;20045;-46
2023/10/23 07:01:20;;;;;;;11.95;6.90;;;13.20;68.80;;;;;;5000851;28;20057;-46
2023/10/23 07:03:47;;;;;;;11.85;6.80;;;13.10;68.70;;;;;;5001785;28;20046;-46
2023/10/23 07:06:15;;;;;;;9.02;6.40;;;13.20;68.80;;;;;;5002908;28;20054;-44
2023/10/23 07:08:42;;;;;;;8.10;6.22;;;13.20;68.70;;;;;;5002313;28;20046;-46
2023/10/23 07:11:15;;;;;;;10.45;6.75;;;13.20;68.70;;;;;;5002857;28;20054;-46
2023/10/23 07:13:42;;;;;;;11.85;6.50;;;13.20;68.70;;;;;;5001330;28;20058;-45
2023/10/23 07:16:09;;;;;;;11.32;6.65;;;13.20;68.70;;;;;;5000896;28;20061;-46
2023/10/23 07:18:36;;;;;;;10.88;6.85;;;13.30;68.80;;;;;;5001825;28;20046;-45
2023/10/23 07:21:04;;;;;;;11.57;6.43;;;13.30;68.90;;;;;;5000937;28;20529;-45
2023/10/23 07:23:31;;;;;;;11.75;7.13;;;13.30;68.90;;;;;;5000330;28;20050;-44
2023/10/23 07:26:10;;;;;;;11.10;7.60;;;13.30;68.90;;;;;;5001943;28;20049;-45
2023/10/23 07:28:39;;;;;;;10.00;5.90;;;13.30;68.90;;;;;;5000340;28;20056;-50
2023/10/23 07:34:28;;;;;;;27.77;14.77;;;13.30;69.00;;;;;;5005168;28;20041;-48
2023/10/23 07:36:56;;;;;;;12.60;7.57;;;13.40;68.90;;;;;;5001581;28;20066;-49
2023/10/23 07:39:23;;;;;;;15.50;7.07;;;13.40;69.00;;;;;;5001580;28;20046;-46
2023/10/23 07:41:50;;;;;;;11.35;6.68;;;13.40;69.10;;;;;;4999534;28;20053;-48
2023/10/23 07:44:20;;;;;;;11.68;6.18;;;13.40;69.10;;;;;;5000325;28;20054;-46
2023/10/23 07:46:47;;;;;;;16.48;6.55;;;13.40;69.10;;;;;;5001388;28;20061;-49
2023/10/23 07:49:14;;;;;;;11.10;5.43;;;13.40;69.10;;;;;;5001629;28;20057;-46
2023/10/23 07:51:42;;;;;;;11.75;5.55;;;13.50;69.20;;;;;;4999486;28;20058;-45
2023/10/23 07:54:09;;;;;;;9.38;5.38;;;13.50;69.10;;;;;;4999617;28;20076;-49
2023/10/23 07:56:36;;;;;;;12.70;5.85;;;13.50;69.10;;;;;;5000635;28;20406;-46
2023/10/23 07:59:04;;;;;;;11.75;5.63;;;13.50;69.10;;;;;;4999468;28;20597;-49
2023/10/23 08:01:33;;;;;;;10.20;5.80;;;13.60;69.10;;;;;;5000791;28;20065;-48
2023/10/23 08:04:00;;;;;;;6.85;4.75;;;13.60;69.10;;;;;;4999413;28;20049;-48
2023/10/23 08:06:27;;;;;;;10.70;6.18;;;13.60;69.10;;;;;;5000239;28;20406;-47
2023/10/23 08:08:54;;;;;;;13.20;6.15;;;13.60;69.20;;;;;;5001720;28;20411;-45
2023/10/23 08:11:22;;;;;;;10.23;6.85;;;13.60;69.20;;;;;;4999747;28;20050;-45
2023/10/23 08:13:49;;;;;;;9.43;6.32;;;13.70;69.20;;;;;;4998702;28;20486;-46
2023/10/23 08:16:16;;;;;;;9.50;6.20;;;13.70;69.10;;;;;;4999094;28;20418;-48
2023/10/23 08:18:45;;;;;;;12.20;6.68;;;13.70;69.00;;;;;;5000997;28;20050;-49
2023/10/23 08:21:14;;;;;;;8.57;6.35;;;13.80;69.00;;;;;;4997846;28;20069;-47
2023/10/23 08:23:42;;;;;;;11.52;6.70;;;13.80;69.10;;;;;;5000292;28;20064;-48
2023/10/23 08:26:10;;;;;;;8.50;6.22;;;13.80;69.00;;;;;;5000739;28;20422;-48
2023/10/23 08:28:37;;;;;;;12.73;6.45;;;13.90;69.10;;;;;;5000968;28;20526;-48
2023/10/23 08:31:04;;;;;;;9.75;5.97;;;13.90;69.10;;;;;;4997925;28;20062;-48
2023/10/23 08:33:32;;;;;;;10.35;5.55;;;13.90;69.20;;;;;;4997433;28;20057;-45
2023/10/23 08:36:00;;;;;;;7.57;5.40;;;14.00;69.40;;;;;;5000725;28;20057;-51
2023/10/23 08:38:28;;;;;;;13.13;4.70;;;14.00;69.50;;;;;;4997099;28;20061;-44
2023/10/23 08:40:56;;;;;;;6.97;4.38;;;14.10;69.50;;;;;;4998979;28;20050;-47
2023/10/23 08:43:23;;;;;;;6.75;4.35;;;14.10;69.40;;;;;;4997794;28;20054;-46
2023/10/23 08:45:54;;;;;;;8.10;4.88;;;14.20;69.20;;;;;;4999940;28;20383;-52
2023/10/23 08:48:22;;;;;;;8.57;4.35;;;14.20;68.60;;;;;;5000729;28;20060;-46
2023/10/23 08:50:50;;;;;;;7.10;3.97;;;14.20;68.40;;;;;;5001009;28;20053;-46
2023/10/23 08:53:23;;;;;;;6.05;4.05;;;14.20;68.30;;;;;;4999071;28;20074;-44
2023/10/23 08:55:51;;;;;;;6.97;3.63;;;14.30;68.40;;;;;;4999148;28;20069;-49
2023/10/23 08:58:21;;;;;;;8.02;3.85;;;14.30;68.20;;;;;;4999004;28;20073;-49
2023/10/23 09:00:49;;;;;;;5.97;4.15;;;14.30;68.00;;;;;;4999840;28;20054;-45
2023/10/23 09:03:19;;;;;;;6.28;3.65;;;14.40;68.00;;;;;;4998411;28;20137;-47
2023/10/23 09:05:46;;;;;;;8.32;3.55;;;14.40;67.80;;;;;;4999464;28;20054;-45
2023/10/23 09:08:14;;;;;;;7.13;4.05;;;14.40;67.80;;;;;;4998308;28;20045;-44
2023/10/23 09:11:01;;;;;;;6.28;3.47;;;14.40;67.70;;;;;;4999045;28;20058;-47
2023/10/23 09:13:34;;;;;;;7.22;4.03;;;14.50;67.70;;;;;;4997523;28;20061;-47
2023/10/23 09:16:01;;;;;;;7.20;3.67;;;14.60;67.70;;;;;;4997918;28;20073;-46
2023/10/23 09:18:28;;;;;;;6.55;3.30;;;14.60;67.50;;;;;;4998208;28;20049;-47
2023/10/23 09:20:57;;;;;;;6.28;3.45;;;14.60;67.30;;;;;;5000509;28;20046;-45
2023/10/23 09:23:25;;;;;;;5.75;3.17;;;14.60;67.10;;;;;;4998835;28;20060;-45
2023/10/23 09:25:57;;;;;;;9.35;3.13;;;14.60;67.00;;;;;;5000609;28;20494;-44
2023/10/23 09:28:27;;;;;;;11.68;3.70;;;14.70;66.90;;;;;;4999915;28;20061;-45
2023/10/23 09:30:55;;;;;;;10.63;3.55;;;14.70;66.90;;;;;;4998667;28;20410;-45
2023/10/23 09:33:23;;;;;;;6.68;2.42;;;14.70;66.70;;;;;;4997793;28;20418;-48
2023/10/23 09:35:51;;;;;;;7.70;2.25;;;14.80;66.80;;;;;;4999392;28;20054;-44
2023/10/23 09:38:19;;;;;;;4.63;2.10;;;14.80;66.70;;;;;;4997774;28;20054;-46
2023/10/23 09:40:46;;;;;;;3.08;1.90;;;14.80;67.00;;;;;;4996326;28;20077;-45
2023/10/23 09:43:14;;;;;;;5.50;2.22;;;14.90;67.10;;;;;;4999343;28;20058;-46
2023/10/23 09:45:43;;;;;;;3.72;1.92;;;14.90;67.20;;;;;;4997470;28;20045;-46
2023/10/23 09:48:12;;;;;;;8.80;1.83;;;15.00;66.90;;;;;;5000636;28;20057;-48
2023/10/23 09:50:42;;;;;;;9.80;1.95;;;15.00;66.70;;;;;;4999262;28;20506;-48
2023/10/23 09:53:11;;;;;;;5.32;1.50;;;15.10;66.60;;;;;;4998649;28;20057;-47
2023/10/23 09:55:41;;;;;;;6.20;1.90;;;15.10;66.20;;;;;;4999983;28;20502;-47
2023/10/23 09:58:14;;;;;;;6.35;1.73;;;15.10;65.80;;;;;;5001218;28;20054;-49
2023/10/23 10:00:47;;;;;;;11.93;2.92;;;15.20;65.20;;;;;;4998391;28;20053;-49
2023/10/23 10:03:18;;;;;;;10.98;1.58;;;15.20;64.80;;;;;;4995792;28;20050;-48
2023/10/23 10:05:50;;;;;;;3.88;1.60;;;15.20;64.60;;;;;;4997881;28;20054;-46
2023/10/23 10:08:19;;;;;;;6.65;1.60;;;15.30;64.70;;;;;;5000239;28;20486;-47
2023/10/23 10:10:49;;;;;;;3.33;1.40;;;15.30;64.70;;;;;;4996973;28;20466;-46
2023/10/23 10:13:17;;;;;;;3.30;1.48;;;15.30;64.70;;;;;;4997919;28;20498;-46
2023/10/23 10:15:46;;;;;;;8.98;1.80;;;15.30;64.60;;;;;;4998573;28;20053;-48
2023/10/23 10:18:16;;;;;;;6.07;1.48;;;15.40;64.50;;;;;;4996209;28;20065;-47
2023/10/23 10:20:48;;;;;;;6.97;1.65;;;15.40;65.10;;;;;;4999495;28;20050;-44
2023/10/23 10:23:16;;;;;;;4.25;1.30;;;15.40;64.30;;;;;;4997899;28;20085;-44
2023/10/23 10:25:46;;;;;;;7.10;1.63;;;15.40;64.30;;;;;;5000819;28;20060;-45
2023/10/23 10:28:14;;;;;;;4.55;1.38;;;15.50;64.20;;;;;;5002603;28;20491;-49
2023/10/23 10:30:45;;;;;;;6.95;1.63;;;15.50;64.20;;;;;;5001217;28;20053;-51
2023/10/23 10:33:20;;;;;;;10.90;1.38;;;15.50;64.20;;;;;;5002041;28;20425;-47
2023/10/23 10:35:51;;;;;;;4.50;1.25;;;15.50;64.20;;;;;;5000566;28;20065;-48
2023/10/23 10:38:22;;;;;;;7.20;1.50;;;15.60;64.30;;;;;;5003189;28;20061;-47
2023/10/23 10:40:57;;;;;;;4.85;1.75;;;15.60;64.40;;;;;;5002068;28;20050;-47
2023/10/23 10:43:26;;;;;;;3.47;1.33;;;15.70;64.40;;;;;;5003307;28;20129;-47
2023/10/23 10:45:56;;;;;;;6.55;1.38;;;15.70;65.10;;;;;;5001644;28;20422;-47
2023/10/23 10:48:25;;;;;;;5.55;1.10;;;15.70;64.00;;;;;;5003956;28;20058;-50
2023/10/23 10:50:55;;;;;;;4.55;1.10;;;15.80;63.70;;;;;;5000039;28;20145;-45
2023/10/23 10:53:25;;;;;;;3.63;1.08;;;15.80;63.60;;;;;;5001620;28;20061;-46
2023/10/23 10:55:52;;;;;;;5.10;0.90;;;15.80;63.30;;;;;;5001704;28;20050;-46
2023/10/23 10:58:21;;;;;;;5.65;1.00;;;15.90;63.20;;;;;;5003664;28;20049;-47
2023/10/23 11:00:48;;;;;;;3.85;0.82;;;15.90;62.90;;;;;;4997459;28;20513;-47
2023/10/23 11:03:18;;;;;;;2.97;0.90;;;15.90;62.70;;;;;;5000771;28;20065;-45
2023/10/23 11:05:46;;;;;;;3.58;1.00;;;16.00;62.50;;;;;;5001371;28;20065;-48
2023/10/23 11:08:13;;;;;;;6.97;1.10;;;16.00;62.40;;;;;;5002133;28;20526;-49
2023/10/23 11:10:42;;;;;;;3.60;1.00;;;16.10;62.40;;;;;;4999621;28;20050;-46
2023/10/23 11:13:14;;;;;;;2.95;1.05;;;16.10;62.20;;;;;;5001961;28;20069;-46
2023/10/23 11:15:41;;;;;;;4.82;1.35;;;16.20;62.30;;;;;;4998646;28;20045;-46
2023/10/23 11:18:09;;;;;;;10.98;2.20;;;16.20;62.20;;;;;;5002045;28;20490;-47
2023/10/23 11:20:38;;;;;;;3.88;1.17;;;16.20;62.00;;;;;;4998045;28;20057;-47
2023/10/23 11:23:05;;;;;;;4.35;1.00;;;16.20;61.90;;;;;;4999813;28;20069;-44
2023/10/23 11:25:34;;;;;;;6.88;1.55;;;16.30;61.90;;;;;;5001227;28;20065;-47
2023/10/23 11:28:06;;;;;;;5.28;1.10;;;16.30;61.80;;;;;;5000726;28;20054;-46
2023/10/23 11:30:45;;;;;;;11.30;1.75;;;16.40;61.00;;;;;;4996225;28;20050;-47
2023/10/23 11:33:13;;;;;;;5.05;1.35;;;16.40;60.80;;;;;;4999161;28;20859;-47
2023/10/23 11:35:43;;;;;;;4.15;1.00;;;16.40;60.80;;;;;;5001117;28;20410;-47
2023/10/23 11:38:13;;;;;;;5.57;1.27;;;16.40;60.50;;;;;;4999639;28;20054;-45
2023/10/23 11:40:42;;;;;;;4.53;1.02;;;16.50;60.60;;;;;;5000361;28;20046;-47
2023/10/23 11:43:10;;;;;;;2.63;0.82;;;16.50;61.00;;;;;;5001838;28;20429;-48
2023/10/23 11:45:39;;;;;;;5.03;1.27;;;16.50;60.80;;;;;;4998957;28;20061;-46
2023/10/23 11:48:07;;;;;;;3.25;1.38;;;16.60;60.40;;;;;;4999547;28;20062;-47
2023/10/23 11:50:36;;;;;;;5.30;1.77;;;16.60;60.20;;;;;;5000716;28;20056;-46
2023/10/23 11:53:05;;;;;;;8.07;1.73;;;16.60;59.90;;;;;;5001430;28;20065;-46
2023/10/23 11:55:34;;;;;;;3.25;0.93;;;16.60;59.70;;;;;;4999237;28;20050;-49
2023/10/23 11:58:03;;;;;;;7.53;1.13;;;16.60;59.60;;;;;;5001185;28;20049;-49
2023/10/23 12:00:33;;;;;;;7.43;1.00;;;16.70;59.60;;;;;;4998104;28;20414;-47
2023/10/23 12:03:00;;;;;;;4.90;1.20;;;16.70;59.70;;;;;;4998061;28;20053;-47
2023/10/23 12:05:28;;;;;;;5.88;1.55;;;16.70;59.60;;;;;;5000477;28;20517;-47
2023/10/23 12:07:56;;;;;;;5.50;1.30;;;16.70;59.50;;;;;;5000210;28;20057;-48
2023/10/23 12:10:26;;;;;;;8.13;1.42;;;16.70;59.50;;;;;;4999669;28;20406;-48
2023/10/23 12:12:55;;;;;;;4.80;1.23;;;16.80;59.50;;;;;;4997685;28;20499;-47
2023/10/23 12:15:24;;;;;;;8.77;1.80;;;16.80;59.40;;;;;;4999761;28;20050;-45
2023/10/23 12:17:51;;;;;;;4.97;1.42;;;16.90;59.40;;;;;;5000666;28;20054;-47
2023/10/23 12:20:21;;;;;;;11.32;2.30;;;16.80;59.20;;;;;;5000532;28;20072;-47
2023/10/23 12:22:49;;;;;;;7.80;1.50;;;16.90;58.90;;;;;;5000366;28;20053;-47
2023/10/23 12:25:17;;;;;;;7.10;1.63;;;16.90;58.60;;;;;;5001164;28;20495;-50
2023/10/23 12:27:45;;;;;;;11.57;1.20;;;16.90;58.50;;;;;;4998937;28;20340;-49
2023/10/23 12:30:15;;;;;;;7.60;1.52;;;16.90;58.40;;;;;;4999979;28;20921;-47
2023/10/23 12:32:42;;;;;;;6.40;1.30;;;16.90;58.30;;;;;;4998431;28;20708;-48
2023/10/23 12:35:10;;;;;;;7.68;1.60;;;17.00;58.20;;;;;;5001763;28;20418;-45
2023/10/23 12:37:39;;;;;;;8.07;1.20;;;17.00;58.20;;;;;;5001660;28;20050;-48
2023/10/23 12:40:10;;;;;;;10.10;1.88;;;17.00;58.00;;;;;;5000517;28;20058;-46
2023/10/23 12:42:39;;;;;;;8.50;1.70;;;17.00;57.90;;;;;;5000702;28;20060;-48
2023/10/23 12:45:09;;;;;;;6.22;1.38;;;17.00;57.70;;;;;;4998778;28;20077;-47
2023/10/23 12:47:36;;;;;;;7.85;1.40;;;17.00;57.50;;;;;;5001318;28;20058;-48
2023/10/23 12:50:04;;;;;;;5.57;1.50;;;17.00;57.50;;;;;;5000936;28;20058;-47
2023/10/23 12:52:32;;;;;;;8.05;1.30;;;17.00;57.30;;;;;;5000304;28;20055;-48